Time;durP1;ratioP1;P1;durP2;ratioP2;P2;SDS_P1;SDS_P2;PMS_P1;PMS_P2;Temp;Humidity;BMP_temperature;BMP_pressure;BME280_temperature;BME280_humidity;BME280_pressure;Samples;Min_cycle;Max_cycle;Signal;HPM_P1;HPM_P2
2021/11/22 00:00:14;;;;;;;10.63;4.57;;;4.30;99.90;;;;;;4988116;28;20054;-84
2021/11/22 00:02:42;;;;;;;12.73;4.25;;;4.30;99.90;;;;;;5016121;28;20049;-84
2021/11/22 00:05:11;;;;;;;11.25;4.15;;;4.30;99.90;;;;;;5010501;28;20588;-85
2021/11/22 00:07:39;;;;;;;10.68;5.82;;;4.40;99.90;;;;;;5009744;28;20061;-85
2021/11/22 00:10:07;;;;;;;12.25;3.42;;;4.40;99.90;;;;;;4962467;28;20051;-84
2021/11/22 00:12:35;;;;;;;5.60;3.72;;;4.20;99.90;;;;;;4999083;28;20034;-84
2021/11/22 00:15:09;;;;;;;12.82;5.05;;;4.20;99.90;;;;;;5001878;28;20450;-84
2021/11/22 00:17:38;;;;;;;14.45;4.93;;;4.20;99.90;;;;;;5017550;28;20065;-83
2021/11/22 00:20:13;;;;;;;5.97;2.92;;;4.20;99.90;;;;;;5017182;28;20053;-84
2021/11/22 00:22:43;;;;;;;6.55;3.20;;;4.20;99.90;;;;;;5017590;28;20042;-84
2021/11/22 00:25:13;;;;;;;6.22;3.03;;;4.20;99.90;;;;;;5001453;28;20050;-84
2021/11/22 00:27:42;;;;;;;12.75;3.53;;;4.20;99.90;;;;;;5022275;28;20623;-83
2021/11/22 00:30:25;;;;;;;12.95;3.65;;;4.20;99.90;;;;;;5006782;28;20046;-83
2021/11/22 00:33:02;;;;;;;8.68;3.55;;;4.30;99.90;;;;;;5009007;28;20054;-83
2021/11/22 00:35:50;;;;;;;10.77;3.40;;;4.20;99.90;;;;;;4993109;28;20070;-83
2021/11/22 00:38:18;;;;;;;6.45;3.50;;;4.90;99.90;;;;;;5007328;28;20069;-83
2021/11/22 00:40:47;;;;;;;17.63;6.13;;;4.70;99.90;;;;;;5001574;28;20058;-84
2021/11/22 00:43:19;;;;;;;12.90;4.10;;;4.20;99.90;;;;;;4987465;28;20039;-83
2021/11/22 00:45:50;;;;;;;5.68;3.45;;;4.30;99.90;;;;;;4989124;28;20065;-83
2021/11/22 00:48:21;;;;;;;10.38;3.80;;;4.30;99.90;;;;;;5004758;28;20445;-83
2021/11/22 00:50:51;;;;;;;8.40;4.13;;;4.30;99.90;;;;;;4994245;28;20049;-85
2021/11/22 00:53:19;;;;;;;8.30;5.57;;;4.20;99.90;;;;;;5002930;28;20061;-83
2021/11/22 00:55:48;;;;;;;14.48;4.32;;;4.30;99.90;;;;;;4987767;28;20047;-83
2021/11/22 00:58:17;;;;;;;12.48;3.78;;;4.30;99.90;;;;;;5004541;28;20058;-84
2021/11/22 01:00:45;;;;;;;14.40;4.85;;;4.30;99.90;;;;;;5025142;28;20050;-84
2021/11/22 01:03:13;;;;;;;9.82;3.92;;;4.30;99.90;;;;;;5036012;28;20058;-83
2021/11/22 01:05:42;;;;;;;7.32;3.97;;;5.20;99.90;;;;;;4990648;28;20056;-83
2021/11/22 01:08:10;;;;;;;10.82;3.60;;;4.20;99.90;;;;;;5006142;28;20526;-84
2021/11/22 01:10:39;;;;;;;11.88;4.93;;;4.20;99.90;;;;;;4986935;28;20053;-83
2021/11/22 01:13:07;;;;;;;27.63;5.47;;;4.20;99.90;;;;;;5005734;28;20141;-83
2021/11/22 01:15:35;;;;;;;13.32;4.18;;;5.50;99.90;;;;;;4988117;28;20050;-83
2021/11/22 01:18:05;;;;;;;11.93;5.28;;;4.20;99.90;;;;;;4989493;28;20055;-83
2021/11/22 01:20:33;;;;;;;9.68;3.80;;;4.20;99.90;;;;;;4999504;28;20063;-83
2021/11/22 01:23:09;;;;;;;12.25;5.00;;;5.50;99.90;;;;;;5003419;28;20065;-83
2021/11/22 01:25:39;;;;;;;10.90;4.18;;;4.20;99.90;;;;;;5002476;28;20497;-84
2021/11/22 01:28:07;;;;;;;18.13;5.53;;;4.20;99.90;;;;;;5019392;28;20055;-83
2021/11/22 01:30:35;;;;;;;11.75;4.07;;;4.20;99.90;;;;;;5002919;28;20057;-83
2021/11/22 01:33:03;;;;;;;8.25;4.35;;;4.20;99.90;;;;;;5010608;28;20046;-83
2021/11/22 01:35:32;;;;;;;19.10;4.53;;;4.20;99.90;;;;;;5028440;28;20044;-85
2021/11/22 01:38:00;;;;;;;15.50;5.60;;;4.20;99.90;;;;;;5009717;28;20050;-83
2021/11/22 01:40:29;;;;;;;8.40;4.10;;;4.60;99.90;;;;;;5003537;28;20054;-84
2021/11/22 01:43:01;;;;;;;18.40;4.35;;;4.20;99.90;;;;;;5006306;28;20039;-83
2021/11/22 01:45:31;;;;;;;15.25;5.95;;;4.20;99.90;;;;;;4984332;28;20058;-84
2021/11/22 01:48:01;;;;;;;9.35;3.83;;;4.20;99.90;;;;;;5003837;28;20061;-84
2021/11/22 01:50:29;;;;;;;11.95;4.47;;;4.20;99.90;;;;;;5018647;28;20058;-84
2021/11/22 01:52:57;;;;;;;13.25;4.22;;;4.20;99.90;;;;;;5004656;28;20054;-83
2021/11/22 01:55:28;;;;;;;8.57;4.75;;;4.20;99.90;;;;;;5022014;28;20061;-83
2021/11/22 01:57:58;;;;;;;12.93;3.70;;;5.50;99.90;;;;;;4992637;28;20047;-84
2021/11/22 02:00:29;;;;;;;15.85;5.80;;;5.50;99.90;;;;;;5008759;28;20050;-84
2021/11/22 02:02:58;;;;;;;21.10;5.82;;;4.20;99.90;;;;;;4990391;28;20058;-85
2021/11/22 02:05:26;;;;;;;12.35;4.55;;;4.20;99.90;;;;;;4989962;28;20050;-83
2021/11/22 02:07:54;;;;;;;11.57;5.32;;;4.20;99.90;;;;;;4990666;28;20053;-83
2021/11/22 02:10:24;;;;;;;17.13;5.85;;;4.50;99.90;;;;;;5009183;28;20073;-85
2021/11/22 02:12:53;;;;;;;13.48;6.63;;;4.20;99.90;;;;;;5022883;28;20209;-86
2021/11/22 02:15:21;;;;;;;8.60;5.28;;;4.10;99.90;;;;;;5007297;28;20053;-83
2021/11/22 02:17:51;;;;;;;7.25;3.70;;;4.20;99.90;;;;;;5023875;28;20403;-84
2021/11/22 02:20:27;;;;;;;11.45;4.18;;;4.70;99.90;;;;;;5022182;28;20080;-84
2021/11/22 02:22:58;;;;;;;13.55;5.00;;;4.10;99.90;;;;;;4976616;28;20054;-84
2021/11/22 02:25:28;;;;;;;7.97;3.67;;;4.10;99.90;;;;;;5021789;28;20042;-83
2021/11/22 02:27:57;;;;;;;12.98;4.05;;;4.10;99.90;;;;;;5021856;28;20046;-84
2021/11/22 02:30:30;;;;;;;10.00;4.30;;;4.10;99.90;;;;;;5005949;28;20054;-83
2021/11/22 02:33:01;;;;;;;19.23;5.13;;;4.20;99.90;;;;;;5004556;28;20061;-83
2021/11/22 02:35:30;;;;;;;11.40;3.87;;;4.20;99.90;;;;;;4988437;28;20053;-83
2021/11/22 02:38:21;;;;;;;19.17;6.53;;;4.20;99.90;;;;;;5003757;28;20050;-86
2021/11/22 02:40:49;;;;;;;9.10;4.22;;;4.20;99.90;;;;;;4995575;28;20058;-84
2021/11/22 02:43:17;;;;;;;19.75;4.30;;;4.20;99.90;;;;;;4980863;28;20058;-85
2021/11/22 02:45:46;;;;;;;15.00;3.55;;;4.10;99.90;;;;;;4980721;28;20042;-84
2021/11/22 02:48:16;;;;;;;7.50;3.80;;;4.20;99.90;;;;;;4994475;28;20058;-84
2021/11/22 02:50:45;;;;;;;14.93;4.88;;;4.30;99.90;;;;;;4979757;28;20375;-84
2021/11/22 02:53:18;;;;;;;12.00;3.92;;;4.20;99.90;;;;;;4993698;28;20387;-84
2021/11/22 02:55:47;;;;;;;20.77;4.43;;;4.20;99.90;;;;;;4978175;28;20070;-83
2021/11/22 02:58:15;;;;;;;12.68;3.17;;;5.10;99.90;;;;;;4994958;28;20061;-84
2021/11/22 03:00:43;;;;;;;18.67;4.97;;;4.20;99.90;;;;;;4962944;28;20054;-84
2021/11/22 03:03:11;;;;;;;10.73;3.65;;;4.20;99.90;;;;;;4995406;28;20051;-83
2021/11/22 03:05:39;;;;;;;9.48;4.05;;;4.20;99.90;;;;;;4986772;28;20051;-84
2021/11/22 03:08:08;;;;;;;19.10;5.55;;;5.30;99.90;;;;;;4996336;28;20050;-86
2021/11/22 03:10:36;;;;;;;11.40;4.60;;;5.40;99.90;;;;;;5009374;28;20054;-84
2021/11/22 03:13:05;;;;;;;16.77;5.55;;;4.10;99.90;;;;;;5012328;28;20220;-83
2021/11/22 03:15:34;;;;;;;9.68;4.47;;;4.20;99.90;;;;;;5010079;28;20061;-83
2021/11/22 03:18:02;;;;;;;15.77;4.55;;;4.20;99.90;;;;;;5009778;28;20070;-82
2021/11/22 03:20:30;;;;;;;15.02;4.32;;;4.10;99.90;;;;;;5011073;28;20050;-85
2021/11/22 03:22:58;;;;;;;16.25;4.80;;;5.00;99.90;;;;;;4995117;28;20050;-85
2021/11/22 03:25:30;;;;;;;11.05;3.78;;;4.20;99.90;;;;;;4995388;28;20058;-84
2021/11/22 03:27:58;;;;;;;13.05;4.55;;;4.20;99.90;;;;;;4998811;28;20051;-85
2021/11/22 03:30:27;;;;;;;12.85;4.18;;;4.20;99.90;;;;;;4993282;28;20062;-84
2021/11/22 03:32:54;;;;;;;11.80;3.40;;;4.30;99.90;;;;;;4976975;28;20057;-84
2021/11/22 03:35:22;;;;;;;11.13;3.20;;;3.40;99.90;;;;;;4994680;28;20505;-83
2021/11/22 03:37:50;;;;;;;24.17;6.85;;;5.60;99.90;;;;;;5009345;28;20504;-88
2021/11/22 03:40:18;;;;;;;21.05;5.28;;;4.20;99.90;;;;;;4994772;28;20061;-86
2021/11/22 03:43:10;;;;;;;9.43;4.13;;;4.20;99.90;;;;;;5012118;28;20513;-84
2021/11/22 03:45:41;;;;;;;23.50;4.95;;;5.40;99.90;;;;;;4991801;28;20425;-84
2021/11/22 03:48:11;;;;;;;12.98;3.78;;;4.20;99.90;;;;;;4993203;28;20046;-83
2021/11/22 03:50:39;;;;;;;24.33;4.65;;;4.20;99.90;;;;;;4976920;28;20736;-84
2021/11/22 03:53:07;;;;;;;13.02;3.53;;;4.10;99.90;;;;;;4994179;28;20042;-83
2021/11/22 03:55:34;;;;;;;15.05;5.05;;;6.20;99.90;;;;;;4975510;28;20069;-85
2021/11/22 03:58:02;;;;;;;17.08;4.45;;;4.90;99.90;;;;;;4977293;28;20042;-83
2021/11/22 04:00:31;;;;;;;11.38;4.10;;;4.60;99.90;;;;;;4974635;28;20057;-85
2021/11/22 04:02:59;;;;;;;10.43;3.88;;;4.80;99.90;;;;;;4992589;28;20073;-84
2021/11/22 04:05:26;;;;;;;19.52;3.80;;;4.10;99.90;;;;;;4993574;28;20054;-85
2021/11/22 04:07:54;;;;;;;20.98;7.65;;;4.10;99.90;;;;;;4975653;28;20059;-84
2021/11/22 04:10:22;;;;;;;15.70;5.07;;;4.00;99.90;;;;;;5009967;28;20058;-84
2021/11/22 04:12:52;;;;;;;24.65;4.95;;;4.10;99.90;;;;;;4994966;28;20050;-83
2021/11/22 04:15:21;;;;;;;18.35;5.13;;;4.10;99.90;;;;;;4995552;28;20046;-83
2021/11/22 04:17:49;;;;;;;9.95;3.70;;;4.60;99.90;;;;;;4992451;28;20046;-84
2021/11/22 04:20:16;;;;;;;12.02;4.05;;;4.40;99.90;;;;;;4975993;28;20054;-83
2021/11/22 04:22:45;;;;;;;17.60;3.85;;;4.20;99.90;;;;;;4976803;28;20062;-83
2021/11/22 04:25:13;;;;;;;17.00;5.28;;;4.40;99.90;;;;;;4977719;28;20521;-82
2021/11/22 04:27:41;;;;;;;8.35;4.05;;;4.40;99.90;;;;;;4994269;28;20038;-83
2021/11/22 04:30:10;;;;;;;7.55;3.42;;;4.20;99.90;;;;;;4994730;28;20058;-85
2021/11/22 04:32:38;;;;;;;13.90;3.72;;;4.20;99.90;;;;;;4976844;28;20046;-84
2021/11/22 04:35:10;;;;;;;15.90;4.47;;;5.40;99.90;;;;;;4994628;28;20046;-84
2021/11/22 04:37:38;;;;;;;12.85;3.63;;;4.20;99.90;;;;;;5016325;28;20051;-83
2021/11/22 04:40:09;;;;;;;18.58;6.03;;;4.20;99.90;;;;;;5019229;28;20050;-83
2021/11/22 04:42:37;;;;;;;;;;;4.20;99.90;;;;;;5003570;28;20038;-85
2021/11/22 04:45:06;;;;;;;17.00;4.70;;;4.20;99.90;;;;;;5018440;28;19922;-84
2021/11/22 04:47:34;;;;;;;11.25;3.60;;;4.20;99.90;;;;;;5032032;28;20050;-83
2021/11/22 04:50:03;;;;;;;18.88;5.85;;;4.20;99.90;;;;;;5016454;28;20038;-82
2021/11/22 04:52:31;;;;;;;15.63;3.83;;;4.20;99.90;;;;;;4999338;28;20046;-83
2021/11/22 04:54:59;;;;;;;14.15;4.07;;;4.50;99.90;;;;;;5015411;28;20054;-84
2021/11/22 04:57:27;;;;;;;9.38;3.08;;;4.20;99.90;;;;;;4983256;28;20050;-86
2021/11/22 04:59:55;;;;;;;13.18;4.47;;;4.80;99.90;;;;;;4999059;28;20046;-84
2021/11/22 05:02:23;;;;;;;15.73;3.45;;;4.10;99.90;;;;;;4983139;28;20050;-83
2021/11/22 05:04:51;;;;;;;18.40;3.92;;;4.10;99.90;;;;;;5016476;28;20046;-87
2021/11/22 05:07:19;;;;;;;8.90;4.43;;;4.10;99.90;;;;;;5016209;28;20050;-87
2021/11/22 05:09:47;;;;;;;12.88;3.83;;;4.10;99.90;;;;;;5015700;28;20057;-85
2021/11/22 05:12:16;;;;;;;19.27;3.83;;;5.10;99.90;;;;;;4985461;28;20054;-85
2021/11/22 05:14:46;;;;;;;9.02;2.95;;;4.10;99.90;;;;;;4986973;28;20058;-85
2021/11/22 05:17:14;;;;;;;11.57;4.25;;;4.10;99.90;;;;;;5002913;28;20050;-85
2021/11/22 05:19:42;;;;;;;12.20;4.88;;;4.10;99.90;;;;;;5004522;28;20051;-87
2021/11/22 05:22:17;;;;;;;16.95;3.72;;;4.40;99.90;;;;;;5005390;28;20039;-88
2021/11/22 05:24:49;;;;;;;12.95;4.15;;;4.70;99.90;;;;;;4995605;28;20407;-85
2021/11/22 05:27:16;;;;;;;;;;;4.10;99.90;;;;;;5011477;28;20043;-87
2021/11/22 05:29:44;;;;;;;12.60;4.38;;;3.60;99.90;;;;;;5012475;28;19925;-89
2021/11/22 05:32:16;;;;;;;7.40;2.38;;;4.10;99.90;;;;;;4996065;28;20050;-88
2021/11/22 05:34:46;;;;;;;16.08;5.72;;;4.10;99.90;;;;;;4995649;28;20046;-84
2021/11/22 05:37:15;;;;;;;14.55;4.88;;;4.00;99.90;;;;;;4994014;28;20050;-85
2021/11/22 05:39:44;;;;;;;13.65;5.95;;;4.10;99.90;;;;;;4991165;28;20046;-87
2021/11/22 05:42:12;;;;;;;14.57;4.43;;;4.00;99.90;;;;;;4991373;28;20066;-84
2021/11/22 05:44:40;;;;;;;46.65;5.35;;;4.00;99.90;;;;;;4990946;28;20050;-84
2021/11/22 05:47:10;;;;;;;8.77;3.05;;;4.10;99.90;;;;;;5006719;28;20046;-85
2021/11/22 05:49:39;;;;;;;18.00;4.45;;;4.00;99.90;;;;;;4990036;28;20405;-85
2021/11/22 05:52:09;;;;;;;20.15;4.47;;;6.10;99.90;;;;;;4982696;28;20054;-86
2021/11/22 05:54:45;;;;;;;12.27;4.47;;;4.10;99.90;;;;;;5009531;28;20053;-85
2021/11/22 05:57:13;;;;;;;18.83;4.15;;;4.10;99.90;;;;;;4985339;28;20421;-83
2021/11/22 05:59:41;;;;;;;15.98;3.28;;;4.70;99.90;;;;;;4991172;28;20055;-84
2021/11/22 06:02:08;;;;;;;12.40;3.38;;;4.10;99.90;;;;;;4989653;28;20054;-83
2021/11/22 06:04:36;;;;;;;11.02;4.07;;;4.10;99.90;;;;;;4979052;28;20047;-84
2021/11/22 06:07:04;;;;;;;17.45;5.82;;;4.50;99.90;;;;;;5007126;28;20057;-83
2021/11/22 06:09:32;;;;;;;15.27;3.80;;;4.10;99.90;;;;;;4992014;28;20042;-83
2021/11/22 06:12:01;;;;;;;11.52;3.78;;;4.10;99.90;;;;;;4988712;28;20054;-84
2021/11/22 06:14:28;;;;;;;18.75;4.43;;;4.10;99.90;;;;;;4989147;28;20050;-84
2021/11/22 06:16:56;;;;;;;14.80;4.78;;;4.10;99.90;;;;;;4988016;28;20050;-83
2021/11/22 06:19:24;;;;;;;6.47;3.03;;;5.10;99.90;;;;;;4989546;28;20038;-83
2021/11/22 06:21:51;;;;;;;13.80;5.43;;;5.10;99.90;;;;;;4988459;28;20061;-83
2021/11/22 06:24:21;;;;;;;9.40;4.00;;;4.00;99.90;;;;;;4971606;28;20050;-83
2021/11/22 06:26:50;;;;;;;4.82;3.17;;;4.00;99.90;;;;;;4987064;28;20063;-84
2021/11/22 06:29:18;;;;;;;8.20;2.97;;;4.00;99.90;;;;;;4989422;28;20394;-83
2021/11/22 06:31:50;;;;;;;11.18;4.07;;;3.80;99.90;;;;;;4989008;28;20049;-83
2021/11/22 06:34:20;;;;;;;11.90;3.30;;;4.00;99.90;;;;;;4989469;28;20042;-82
2021/11/22 06:36:47;;;;;;;10.18;3.55;;;4.00;99.90;;;;;;4968243;28;20161;-84
2021/11/22 06:39:15;;;;;;;10.45;3.28;;;3.90;99.90;;;;;;4970503;28;20046;-83
2021/11/22 06:41:43;;;;;;;17.60;4.95;;;4.30;99.90;;;;;;4962974;28;20054;-82
2021/11/22 06:44:10;;;;;;;4.88;2.70;;;3.90;99.90;;;;;;5002428;28;20050;-83
2021/11/22 06:46:38;;;;;;;13.90;4.93;;;3.90;99.90;;;;;;5004123;28;20042;-83
2021/11/22 06:49:06;;;;;;;7.85;3.08;;;3.90;99.90;;;;;;5003881;28;20042;-85
2021/11/22 06:51:33;;;;;;;9.13;4.45;;;3.90;99.90;;;;;;4989514;28;20050;-85
2021/11/22 06:54:01;;;;;;;11.43;3.20;;;3.90;99.90;;;;;;4989164;28;20660;-83
2021/11/22 06:56:29;;;;;;;15.80;4.25;;;3.90;99.90;;;;;;4986695;28;20494;-82
2021/11/22 06:58:57;;;;;;;5.80;3.05;;;4.00;99.90;;;;;;4988534;28;20053;-85
2021/11/22 07:01:24;;;;;;;11.73;3.33;;;4.00;99.90;;;;;;4991312;28;20049;-83
2021/11/22 07:03:52;;;;;;;14.63;4.35;;;4.00;99.90;;;;;;4995855;28;20037;-85
2021/11/22 07:06:20;;;;;;;11.40;3.38;;;4.00;99.90;;;;;;4970137;28;20046;-83
2021/11/22 07:08:47;;;;;;;16.38;3.42;;;5.00;99.90;;;;;;4986497;28;20053;-82
2021/11/22 07:11:15;;;;;;;10.88;4.10;;;5.00;99.90;;;;;;5001444;28;20113;-83
2021/11/22 07:13:43;;;;;;;8.95;2.58;;;3.90;99.90;;;;;;5002708;28;20395;-84
2021/11/22 07:16:12;;;;;;;5.25;3.63;;;3.90;99.90;;;;;;4983064;28;20050;-85
2021/11/22 07:18:40;;;;;;;14.25;4.90;;;5.20;99.90;;;;;;5003255;28;20047;-82
2021/11/22 07:21:08;;;;;;;11.13;3.15;;;3.90;99.90;;;;;;4972947;28;20066;-82
2021/11/22 07:23:37;;;;;;;10.07;3.30;;;3.90;99.90;;;;;;4978657;28;20173;-85
2021/11/22 07:26:04;;;;;;;11.18;2.83;;;3.90;99.90;;;;;;4998137;28;20061;-83
2021/11/22 07:28:32;;;;;;;16.27;4.68;;;3.90;99.90;;;;;;5012823;28;20045;-82
2021/11/22 07:31:00;;;;;;;9.73;3.80;;;5.80;99.90;;;;;;5004941;28;20354;-83
2021/11/22 07:33:28;;;;;;;9.43;3.10;;;3.90;99.90;;;;;;4993952;28;20096;-85
2021/11/22 07:35:56;;;;;;;19.42;3.42;;;3.90;99.90;;;;;;5023482;28;20042;-84
2021/11/22 07:38:23;;;;;;;7.30;3.10;;;4.40;99.90;;;;;;4992407;28;20050;-85
2021/11/22 07:40:51;;;;;;;14.50;5.38;;;3.80;99.90;;;;;;4994782;28;20126;-83
2021/11/22 07:43:19;;;;;;;11.95;6.43;;;3.90;99.90;;;;;;4971539;28;20050;-83
2021/11/22 07:45:47;;;;;;;18.15;5.60;;;3.80;99.90;;;;;;4987094;28;20065;-84
2021/11/22 07:48:16;;;;;;;12.98;3.95;;;3.80;99.90;;;;;;5003172;28;20043;-84
2021/11/22 07:50:44;;;;;;;15.35;4.10;;;3.80;99.90;;;;;;4969855;28;20050;-84
2021/11/22 07:53:32;;;;;;;13.80;3.00;;;3.90;99.90;;;;;;5001595;28;20049;-83
2021/11/22 07:56:00;;;;;;;18.60;3.70;;;5.20;99.90;;;;;;5001349;28;20399;-84
2021/11/22 07:58:28;;;;;;;10.80;4.97;;;5.20;99.90;;;;;;5003930;28;20855;-84
2021/11/22 08:00:55;;;;;;;13.90;3.47;;;3.90;99.90;;;;;;4986661;28;20046;-85
2021/11/22 08:03:26;;;;;;;30.35;4.75;;;5.80;99.90;;;;;;4988324;28;20061;-84
2021/11/22 08:05:57;;;;;;;22.08;4.63;;;3.90;99.90;;;;;;4972847;28;20051;-85
2021/11/22 08:08:28;;;;;;;14.20;5.03;;;4.20;99.90;;;;;;4995805;28;20046;-84
2021/11/22 08:13:41;;;;;;;13.45;4.10;;;4.10;99.90;;;;;;4987245;28;20077;-84
2021/11/22 08:16:09;;;;;;;21.95;4.50;;;4.10;99.90;;;;;;4995107;28;20053;-85
2021/11/22 08:18:38;;;;;;;7.32;4.15;;;4.20;99.90;;;;;;4981291;28;20046;-85
2021/11/22 08:21:08;;;;;;;9.30;3.70;;;5.70;99.90;;;;;;4977746;28;20051;-85
2021/11/22 08:23:39;;;;;;;9.35;3.60;;;4.30;99.90;;;;;;4983129;28;20053;-85
2021/11/22 08:26:07;;;;;;;13.60;3.55;;;4.30;99.90;;;;;;4986762;28;20041;-85
2021/11/22 08:28:35;;;;;;;6.25;3.45;;;4.50;99.90;;;;;;5002661;28;20502;-85
2021/11/22 08:31:03;;;;;;;18.02;4.03;;;4.40;99.90;;;;;;4986788;28;20526;-86
2021/11/22 08:33:34;;;;;;;13.63;3.28;;;4.50;99.90;;;;;;4986374;28;20740;-86
2021/11/22 08:36:02;;;;;;;14.98;3.78;;;4.50;99.90;;;;;;4954025;28;20049;-86
2021/11/22 08:38:30;;;;;;;15.15;3.60;;;4.50;99.90;;;;;;4954412;28;20054;-87
2021/11/22 08:40:58;;;;;;;13.93;4.05;;;6.30;99.90;;;;;;4985867;28;20053;-85
2021/11/22 08:43:25;;;;;;;12.88;3.88;;;5.30;99.90;;;;;;4992815;28;20053;-83
2021/11/22 08:45:54;;;;;;;11.85;4.35;;;4.80;99.90;;;;;;4989623;28;20050;-84
2021/11/22 08:48:25;;;;;;;14.82;4.72;;;4.80;99.90;;;;;;4992528;28;20049;-85
2021/11/22 08:50:53;;;;;;;7.03;3.23;;;4.90;99.90;;;;;;4977939;28;20050;-84
2021/11/22 08:53:22;;;;;;;23.08;3.70;;;6.40;99.90;;;;;;5017233;28;20049;-84
2021/11/22 08:55:50;;;;;;;10.30;3.88;;;5.00;99.90;;;;;;4999366;28;20497;-83
2021/11/22 08:58:18;;;;;;;44.90;6.82;;;6.90;99.90;;;;;;5013552;28;20053;-86
2021/11/22 09:00:46;;;;;;;7.85;3.00;;;5.10;99.90;;;;;;5011887;28;20061;-84
2021/11/22 09:03:14;;;;;;;7.22;2.70;;;5.20;99.90;;;;;;5027256;28;20532;-84
2021/11/22 09:05:42;;;;;;;21.23;4.93;;;5.30;99.90;;;;;;5026435;28;20053;-84
2021/11/22 09:08:11;;;;;;;9.85;3.35;;;5.30;99.90;;;;;;4990912;28;20058;-84
2021/11/22 09:10:39;;;;;;;8.77;3.92;;;5.40;99.90;;;;;;4975446;28;20053;-85
2021/11/22 09:13:07;;;;;;;12.70;4.55;;;6.60;99.90;;;;;;4999173;28;20602;-85
2021/11/22 09:15:34;;;;;;;15.80;4.10;;;4.70;99.90;;;;;;5015984;28;20045;-86
2021/11/22 09:18:02;;;;;;;9.55;3.70;;;5.50;99.90;;;;;;4968729;28;20057;-85
2021/11/22 09:20:31;;;;;;;13.18;3.13;;;7.40;99.90;;;;;;5015998;28;20053;-86
2021/11/22 09:23:02;;;;;;;9.63;3.72;;;5.60;99.90;;;;;;5004050;28;20498;-86
2021/11/22 09:25:30;;;;;;;8.05;3.75;;;5.70;99.90;;;;;;5000514;28;20061;-86
2021/11/22 09:27:59;;;;;;;14.88;3.22;;;5.70;99.90;;;;;;4999406;28;20425;-86
2021/11/22 09:30:28;;;;;;;12.10;3.35;;;7.10;99.90;;;;;;5001840;28;20717;-86
2021/11/22 09:32:56;;;;;;;18.40;3.70;;;5.90;99.90;;;;;;5000425;28;20049;-86
2021/11/22 09:35:27;;;;;;;5.22;3.33;;;5.90;99.90;;;;;;5018104;28;20603;-86
2021/11/22 09:37:55;;;;;;;11.60;3.97;;;7.10;99.90;;;;;;5012014;28;20054;-85
2021/11/22 09:40:23;;;;;;;21.10;4.53;;;6.00;99.90;;;;;;4995191;28;20060;-84
2021/11/22 09:42:54;;;;;;;8.55;2.90;;;6.10;99.90;;;;;;4983617;28;20053;-85
2021/11/22 09:45:26;;;;;;;11.13;2.93;;;6.10;99.90;;;;;;4959104;28;20045;-87
2021/11/22 09:47:56;;;;;;;14.63;4.85;;;7.30;99.90;;;;;;4994586;28;20055;-86
2021/11/22 09:50:25;;;;;;;14.98;3.30;;;6.20;99.90;;;;;;4974360;28;20050;-87
2021/11/22 09:52:55;;;;;;;6.75;2.95;;;6.30;99.90;;;;;;4993729;28;20054;-86
2021/11/22 09:55:24;;;;;;;13.75;4.13;;;7.50;99.90;;;;;;4992008;28;20046;-87
2021/11/22 09:57:51;;;;;;;5.97;2.70;;;6.40;99.90;;;;;;4957968;28;20059;-87
2021/11/22 10:00:20;;;;;;;25.75;5.25;;;7.10;99.90;;;;;;5005368;28;20048;-84
2021/11/22 10:02:55;;;;;;;15.40;3.67;;;7.30;99.90;;;;;;4988328;28;20537;-85
2021/11/22 10:05:33;;;;;;;8.55;2.60;;;6.60;99.90;;;;;;5014785;28;20042;-86
2021/11/22 10:08:02;;;;;;;12.98;3.30;;;7.50;99.90;;;;;;4998257;28;20065;-86
2021/11/22 10:10:32;;;;;;;9.85;2.85;;;6.70;99.90;;;;;;4996336;28;20053;-85
2021/11/22 10:13:16;;;;;;;16.40;3.63;;;6.80;99.90;;;;;;4957093;28;20054;-85
2021/11/22 10:15:45;;;;;;;12.65;4.25;;;8.20;99.90;;;;;;4988721;28;20049;-85
2021/11/22 10:18:20;;;;;;;11.93;3.72;;;7.90;99.90;;;;;;5005289;28;20489;-86
2021/11/22 10:20:48;;;;;;;8.68;3.03;;;7.00;99.90;;;;;;4989852;28;20050;-85
2021/11/22 10:23:28;;;;;;;13.93;2.97;;;7.00;99.90;;;;;;4990830;28;20057;-84
2021/11/22 10:25:57;;;;;;;13.35;4.10;;;7.40;99.90;;;;;;5008485;28;20438;-84
2021/11/22 10:28:31;;;;;;;9.63;3.20;;;7.20;99.90;;;;;;5011981;28;20061;-85
2021/11/22 10:31:03;;;;;;;11.00;3.67;;;7.60;99.90;;;;;;4996923;28;20050;-87
2021/11/22 10:33:37;;;;;;;9.73;2.97;;;7.50;99.90;;;;;;4980199;28;20050;-85
2021/11/22 10:36:08;;;;;;;27.98;3.85;;;7.30;99.90;;;;;;4993322;28;20490;-85
2021/11/22 10:38:38;;;;;;;11.45;2.83;;;7.40;99.90;;;;;;4997598;28;20050;-85
2021/11/22 10:41:08;;;;;;;12.02;2.70;;;7.50;99.90;;;;;;5012846;28;20046;-85
2021/11/22 10:43:53;;;;;;;21.65;4.05;;;7.70;99.90;;;;;;4963179;28;20047;-85
2021/11/22 10:46:27;;;;;;;12.57;3.00;;;7.60;99.90;;;;;;4998652;28;20083;-85
2021/11/22 10:49:27;;;;;;;35.58;6.05;;;7.70;99.90;;;;;;4983102;28;20050;-84
2021/11/22 10:52:14;;;;;;;9.75;2.95;;;7.80;99.90;;;;;;4979740;28;20405;-85
2021/11/22 10:54:55;;;;;;;20.17;3.95;;;7.80;99.90;;;;;;4991810;28;20061;-85
2021/11/22 10:57:31;;;;;;;18.98;3.35;;;7.90;99.90;;;;;;5012900;28;20046;-86
2021/11/22 10:59:59;;;;;;;7.07;3.50;;;7.90;99.90;;;;;;5019747;28;20054;-87
2021/11/22 11:02:41;;;;;;;20.55;3.47;;;8.00;99.90;;;;;;4980310;28;20054;-84
2021/11/22 11:05:26;;;;;;;18.25;4.65;;;8.10;99.90;;;;;;4980837;28;20055;-86
2021/11/22 11:08:03;;;;;;;16.70;6.97;;;8.10;99.90;;;;;;4997367;28;20552;-85
2021/11/22 11:10:32;;;;;;;19.83;5.13;;;8.20;99.90;;;;;;4984214;28;20470;-85
2021/11/22 11:13:05;;;;;;;23.60;6.22;;;8.30;99.90;;;;;;5009109;28;20042;-85
2021/11/22 11:15:34;;;;;;;10.55;3.35;;;8.30;99.90;;;;;;4970626;28;20038;-85
2021/11/22 11:18:04;;;;;;;12.23;3.60;;;8.40;99.90;;;;;;4978810;28;20486;-85
2021/11/22 11:20:33;;;;;;;14.80;3.92;;;8.40;99.90;;;;;;4976503;28;20058;-86
2021/11/22 11:23:02;;;;;;;9.50;4.22;;;8.50;99.90;;;;;;5021504;28;20047;-86
2021/11/22 11:25:32;;;;;;;13.63;3.72;;;8.60;99.90;;;;;;5020090;28;20057;-86
2021/11/22 11:28:20;;;;;;;11.55;2.70;;;8.90;99.90;;;;;;5038137;28;20053;-86
2021/11/22 11:30:47;;;;;;;16.33;4.88;;;8.70;99.90;;;;;;5017020;28;20051;-86
2021/11/22 11:33:15;;;;;;;9.48;2.50;;;8.70;99.90;;;;;;5015925;28;20062;-84
2021/11/22 11:36:04;;;;;;;6.68;3.30;;;8.80;99.90;;;;;;4988644;28;20050;-84
2021/11/22 11:39:12;;;;;;;7.95;2.75;;;8.80;99.90;;;;;;5003479;28;20412;-84
2021/11/22 11:42:19;;;;;;;8.15;2.83;;;8.90;99.90;;;;;;4955053;28;20067;-84
2021/11/22 11:45:14;;;;;;;18.38;3.72;;;9.00;99.90;;;;;;4968215;28;20055;-84
2021/11/22 11:47:50;;;;;;;8.23;3.25;;;9.00;99.90;;;;;;5002662;28;20497;-85
2021/11/22 11:50:21;;;;;;;12.60;3.42;;;9.10;99.90;;;;;;4985140;28;20466;-84
2021/11/22 11:53:12;;;;;;;27.23;4.57;;;9.10;99.90;;;;;;5000289;28;20054;-84
2021/11/22 11:55:42;;;;;;;19.88;3.40;;;9.20;99.90;;;;;;4984241;28;20054;-85
2021/11/22 11:58:26;;;;;;;11.48;3.50;;;9.20;99.90;;;;;;4983208;28;20059;-84
2021/11/22 12:00:57;;;;;;;13.75;2.97;;;9.40;99.90;;;;;;4984742;28;20368;-85
2021/11/22 12:03:30;;;;;;;14.98;3.33;;;9.40;99.90;;;;;;4989315;28;20065;-86
2021/11/22 12:05:59;;;;;;;17.23;2.70;;;9.30;99.90;;;;;;4988768;28;20395;-86
2021/11/22 12:08:32;;;;;;;15.93;3.25;;;9.40;99.90;;;;;;4987248;28;20045;-84
2021/11/22 12:11:03;;;;;;;12.18;3.17;;;9.40;99.90;;;;;;4974828;28;20503;-85
2021/11/22 12:13:49;;;;;;;27.63;5.60;;;9.40;99.90;;;;;;4991712;28;20050;-86
2021/11/22 12:16:43;;;;;;;14.80;4.43;;;9.50;99.90;;;;;;4986717;28;20062;-85
2021/11/22 12:19:34;;;;;;;13.38;3.50;;;9.50;99.90;;;;;;4971818;28;20050;-87
2021/11/22 12:22:25;;;;;;;11.98;3.47;;;9.60;99.90;;;;;;4992283;28;20057;-84
2021/11/22 12:24:52;;;;;;;21.33;4.68;;;9.70;99.90;;;;;;4988857;28;20077;-84
2021/11/22 12:27:27;;;;;;;14.20;3.35;;;9.70;99.90;;;;;;4978526;28;20051;-86
2021/11/22 12:29:56;;;;;;;10.75;3.50;;;9.80;99.90;;;;;;4982678;28;20043;-84
2021/11/22 12:32:36;;;;;;;12.68;3.15;;;9.80;99.90;;;;;;5022057;28;20053;-84
2021/11/22 12:35:15;;;;;;;13.77;3.53;;;9.80;99.90;;;;;;4987839;28;20417;-84
2021/11/22 12:37:43;;;;;;;11.10;3.03;;;10.40;99.90;;;;;;4958984;28;20054;-84
2021/11/22 12:40:14;;;;;;;13.13;2.75;;;9.80;99.90;;;;;;4988758;28;20057;-85
2021/11/22 12:42:52;;;;;;;18.88;6.35;;;9.80;99.90;;;;;;4998590;28;20042;-85
2021/11/22 12:45:22;;;;;;;16.75;3.63;;;9.80;99.90;;;;;;4962736;28;20050;-84
2021/11/22 12:47:50;;;;;;;10.43;2.80;;;9.80;99.90;;;;;;4991833;28;20046;-85
2021/11/22 12:50:20;;;;;;;14.48;4.38;;;9.80;99.90;;;;;;5018830;28;20050;-85
2021/11/22 12:53:14;;;;;;;16.77;3.10;;;9.80;99.90;;;;;;4983969;28;20034;-86
2021/11/22 12:55:47;;;;;;;12.02;3.58;;;9.80;99.90;;;;;;5008272;28;20536;-86
2021/11/22 12:58:24;;;;;;;12.20;3.45;;;9.80;99.90;;;;;;4998331;28;20508;-86
2021/11/22 13:00:55;;;;;;;14.15;3.72;;;9.90;99.90;;;;;;4996828;28;20426;-83
2021/11/22 13:03:24;;;;;;;15.50;2.95;;;9.90;99.90;;;;;;5004191;28;20065;-87
2021/11/22 13:06:16;;;;;;;20.52;3.83;;;9.90;99.90;;;;;;4986211;28;20058;-84
2021/11/22 13:08:46;;;;;;;18.67;3.33;;;9.90;99.90;;;;;;4980554;28;20045;-85
2021/11/22 13:11:42;;;;;;;10.80;4.93;;;9.90;99.90;;;;;;4978904;28;20054;-85